createdAt,value
2023-04-13T00:01:12.963Z,63.83
2023-04-13T00:03:43.278Z,65.18
2023-04-13T00:06:13.172Z,66.63
2023-04-13T00:08:45.054Z,65.00
2023-04-13T00:11:15.879Z,66.50
2023-04-13T00:13:49.115Z,63.88
2023-04-13T00:16:19.397Z,65.03
2023-04-13T00:18:49.173Z,63.30
2023-04-13T00:21:19.110Z,63.28
2023-04-13T00:23:48.880Z,62.78
2023-04-13T00:26:23.712Z,63.08
2023-04-13T00:28:53.989Z,63.50
2023-04-13T00:31:24.807Z,62.83
2023-04-13T00:33:56.759Z,63.83
2023-04-13T00:36:30.305Z,64.47
2023-04-13T00:39:01.135Z,62.45
2023-04-13T00:41:30.933Z,62.22
2023-04-13T00:44:01.362Z,60.83
2023-04-13T00:46:31.262Z,59.45
2023-04-13T00:49:03.267Z,59.20
2023-04-13T00:51:34.806Z,58.85
2023-04-13T00:54:04.884Z,57.55
2023-04-13T00:56:36.007Z,58.35
2023-04-13T00:59:06.547Z,58.35
2023-04-13T01:01:37.291Z,57.47
2023-04-13T01:04:07.513Z,59.75
2023-04-13T01:06:44.598Z,56.97
2023-04-13T01:09:20.889Z,57.33
2023-04-13T01:12:15.808Z,57.03
2023-04-13T01:15:00.492Z,56.35
2023-04-13T01:17:35.109Z,56.33
2023-04-13T01:20:17.316Z,54.00
2023-04-13T01:22:56.345Z,54.83
2023-04-13T01:25:52.248Z,56.72
2023-04-13T01:28:24.902Z,54.75
2023-04-13T01:30:58.780Z,56.67
2023-04-13T01:33:31.888Z,53.63
2023-04-13T01:36:05.171Z,52.72
2023-04-13T01:38:35.298Z,51.65
2023-04-13T01:41:06.081Z,52.00
2023-04-13T01:43:39.044Z,55.47
2023-04-13T01:46:18.425Z,52.85
2023-04-13T01:49:00.608Z,52.92
2023-04-13T01:51:52.752Z,51.17
2023-04-13T01:54:29.372Z,51.83
2023-04-13T01:57:01.497Z,51.42
2023-04-13T01:59:32.167Z,48.80
2023-04-13T02:02:01.947Z,51.58
2023-04-13T02:04:35.028Z,50.72
2023-04-13T02:07:04.937Z,51.95
2023-04-13T02:09:39.135Z,50.17
2023-04-13T02:12:09.593Z,51.08
2023-04-13T02:14:41.296Z,49.88
2023-04-13T02:17:11.849Z,49.30
2023-04-13T02:19:42.901Z,49.22
2023-04-13T02:22:14.164Z,50.55
2023-04-13T02:24:44.101Z,49.85
2023-04-13T02:27:14.010Z,50.50
2023-04-13T02:29:45.079Z,50.13
2023-04-13T02:32:14.976Z,67.95
2023-04-13T02:34:45.496Z,64.72
2023-04-13T02:37:17.423Z,65.50
2023-04-13T02:39:48.206Z,48.30
2023-04-13T02:42:18.944Z,48.13
2023-04-13T02:44:49.093Z,50.20
2023-04-13T02:47:19.998Z,50.92
2023-04-13T02:49:51.168Z,50.92
2023-04-13T02:52:40.841Z,48.80
2023-04-13T02:55:11.643Z,49.67
2023-04-13T02:57:55.648Z,50.63
2023-04-13T03:00:27.186Z,50.28
2023-04-13T03:03:04.860Z,50.95
2023-04-13T03:05:40.282Z,49.97
2023-04-13T03:08:15.899Z,50.00
2023-04-13T03:11:00.978Z,47.13
2023-04-13T03:13:32.156Z,49.70
2023-04-13T03:16:05.926Z,48.00
2023-04-13T03:18:35.895Z,47.58
2023-04-13T03:21:07.460Z,48.25
2023-04-13T03:23:45.561Z,48.72
2023-04-13T03:26:17.810Z,50.55
2023-04-13T03:28:53.556Z,48.08
2023-04-13T03:31:24.217Z,48.58
2023-04-13T03:33:55.038Z,48.00
2023-04-13T03:36:25.277Z,48.60
2023-04-13T03:38:55.265Z,46.08
2023-04-13T03:41:26.945Z,45.67
2023-04-13T03:43:57.470Z,45.78
2023-04-13T03:46:28.763Z,45.88
2023-04-13T03:49:01.236Z,46.95
2023-04-13T03:51:31.602Z,47.17
2023-04-13T03:54:02.608Z,47.38
2023-04-13T03:56:40.180Z,46.20
2023-04-13T03:59:11.532Z,48.22
2023-04-13T04:01:41.709Z,46.05
2023-04-13T04:04:11.740Z,48.92
2023-04-13T04:06:41.969Z,45.97
2023-04-13T04:09:19.073Z,45.22
2023-04-13T04:11:50.503Z,45.22
2023-04-13T04:14:27.941Z,47.38
2023-04-13T04:17:08.013Z,44.45
2023-04-13T04:19:38.588Z,45.60
2023-04-13T04:22:09.331Z,47.65
2023-04-13T04:24:43.894Z,46.20
2023-04-13T04:27:15.960Z,45.25
2023-04-13T04:29:50.875Z,46.15
2023-04-13T04:32:31.901Z,47.55
2023-04-13T04:35:05.450Z,44.58
2023-04-13T04:37:42.124Z,44.15
2023-04-13T04:40:18.146Z,45.40
2023-04-13T04:42:48.526Z,46.17
2023-04-13T04:45:34.633Z,47.17
2023-04-13T04:48:07.194Z,45.53
2023-04-13T04:50:39.025Z,44.05
2023-04-13T04:53:14.648Z,45.40
2023-04-13T04:55:44.564Z,43.80
2023-04-13T04:58:21.385Z,41.90
2023-04-13T05:00:58.254Z,45.28
2023-04-13T05:03:28.306Z,45.47
2023-04-13T05:06:09.486Z,43.40
2023-04-13T05:08:40.708Z,45.95
2023-04-13T05:11:11.116Z,46.33
2023-04-13T05:13:42.041Z,44.63
2023-04-13T05:16:17.545Z,49.67
2023-04-13T05:18:49.527Z,45.20
2023-04-13T05:21:39.510Z,46.15
2023-04-13T05:24:10.003Z,45.55
2023-04-13T05:26:41.210Z,45.35
2023-04-13T05:29:11.955Z,45.85
2023-04-13T05:31:44.479Z,46.88
2023-04-13T05:34:14.784Z,46.00
2023-04-13T05:36:55.034Z,46.50
2023-04-13T05:39:25.916Z,46.90
2023-04-13T05:41:55.931Z,44.88
2023-04-13T05:44:28.136Z,45.13
2023-04-13T05:46:58.473Z,47.35
2023-04-13T05:49:28.725Z,46.40
2023-04-13T05:51:58.469Z,47.22
2023-04-13T05:54:38.823Z,45.42
2023-04-13T05:57:09.187Z,44.42
2023-04-13T05:59:43.330Z,44.00
2023-04-13T06:02:14.666Z,44.40
2023-04-13T06:04:44.901Z,44.00
2023-04-13T06:07:18.423Z,45.58
2023-04-13T06:09:48.772Z,45.05
2023-04-13T06:12:19.854Z,42.90
2023-04-13T06:14:50.110Z,44.38
2023-04-13T06:17:21.743Z,44.40
2023-04-13T06:19:52.742Z,42.70
2023-04-13T06:22:25.740Z,44.03
2023-04-13T06:24:57.578Z,43.45
2023-04-13T06:27:28.591Z,41.58
2023-04-13T06:30:00.688Z,42.10
2023-04-13T06:32:33.795Z,42.72
2023-04-13T06:35:06.191Z,42.53
2023-04-13T06:37:54.301Z,41.25
2023-04-13T06:40:35.137Z,42.80
2023-04-13T06:43:13.487Z,41.72
2023-04-13T06:46:01.100Z,44.55
2023-04-13T06:48:34.175Z,42.58
2023-04-13T06:51:05.545Z,41.78
2023-04-13T06:53:37.122Z,41.22
2023-04-13T06:56:07.685Z,42.08
2023-04-13T06:58:38.299Z,42.45
2023-04-13T07:01:09.876Z,43.78
2023-04-13T07:03:42.071Z,41.50
2023-04-13T07:06:13.149Z,41.40
2023-04-13T07:08:43.652Z,42.17
2023-04-13T07:11:16.176Z,45.13
2023-04-13T07:13:46.209Z,42.33
2023-04-13T07:16:17.783Z,40.95
2023-04-13T07:18:49.773Z,43.85
2023-04-13T07:21:22.658Z,42.60
2023-04-13T07:24:04.165Z,43.88
2023-04-13T07:26:37.257Z,46.28
2023-04-13T07:29:13.776Z,44.15
2023-04-13T07:31:50.165Z,43.65
2023-04-13T07:34:21.382Z,43.95
2023-04-13T07:36:52.999Z,42.13
2023-04-13T07:39:24.732Z,42.17
2023-04-13T07:41:56.291Z,43.55
2023-04-13T07:44:37.890Z,42.15
2023-04-13T07:47:09.867Z,42.85
2023-04-13T07:49:40.501Z,42.80
2023-04-13T07:52:18.404Z,42.72
2023-04-13T07:54:49.169Z,41.97
2023-04-13T07:57:23.141Z,43.97
2023-04-13T07:59:59.209Z,46.45
2023-04-13T08:02:36.036Z,43.50
2023-04-13T08:05:09.706Z,45.83
2023-04-13T08:07:39.930Z,45.15
2023-04-13T08:10:10.876Z,45.13
2023-04-13T08:12:41.329Z,44.28
2023-04-13T08:15:13.080Z,44.00
2023-04-13T08:17:43.817Z,45.00
2023-04-13T08:20:16.300Z,44.65
2023-04-13T08:22:47.964Z,45.33
2023-04-13T08:25:19.009Z,44.00
2023-04-13T08:27:49.138Z,45.25
2023-04-13T08:30:18.867Z,45.55
2023-04-13T08:32:57.513Z,49.80
2023-04-13T08:35:27.569Z,50.80
2023-04-13T08:37:58.113Z,49.20
2023-04-13T08:40:28.615Z,46.42
2023-04-13T08:43:01.888Z,46.53
2023-04-13T08:45:35.694Z,46.55
2023-04-13T08:48:06.758Z,46.63
2023-04-13T08:50:40.624Z,45.33
2023-04-13T08:53:12.002Z,44.05
2023-04-13T08:55:50.076Z,45.13
2023-04-13T08:58:24.213Z,46.17
2023-04-13T09:00:54.928Z,46.72
2023-04-13T09:03:31.529Z,47.05
2023-04-13T09:06:12.626Z,44.17
2023-04-13T09:08:46.353Z,47.17
2023-04-13T09:11:17.598Z,51.95
2023-04-13T09:13:53.422Z,48.30
2023-04-13T09:16:24.168Z,45.55
2023-04-13T09:19:00.114Z,46.25
2023-04-13T09:21:52.247Z,46.45
2023-04-13T09:24:22.275Z,47.45
2023-04-13T09:26:52.679Z,46.05
2023-04-13T09:29:26.277Z,48.10
2023-04-13T09:31:56.143Z,46.28
2023-04-13T09:34:32.144Z,47.38
2023-04-13T09:37:15.056Z,46.70
2023-04-13T09:39:44.974Z,47.72
2023-04-13T09:42:19.570Z,46.40
2023-04-13T09:45:01.789Z,47.53
2023-04-13T09:47:42.486Z,46.47
2023-04-13T09:50:35.273Z,56.10
2023-04-13T09:53:07.802Z,47.78
2023-04-13T09:55:39.574Z,49.78
2023-04-13T09:58:18.180Z,46.92
2023-04-13T10:00:48.616Z,45.58
2023-04-13T10:03:23.924Z,46.72
2023-04-13T10:05:59.562Z,51.15
2023-04-13T10:08:38.235Z,46.25
2023-04-13T10:11:16.188Z,46.38
2023-04-13T10:14:02.465Z,47.47
2023-04-13T10:17:01.211Z,49.15
2023-04-13T10:19:37.906Z,45.72
2023-04-13T10:22:09.371Z,47.08
2023-04-13T10:24:41.820Z,46.53
2023-04-13T10:27:23.437Z,48.25
2023-04-13T10:29:53.769Z,48.40
2023-04-13T10:32:29.042Z,47.25
2023-04-13T10:35:10.036Z,47.05
2023-04-13T10:37:42.147Z,54.08
2023-04-13T10:40:14.835Z,48.55
2023-04-13T10:45:22.914Z,48.85
2023-04-13T10:47:54.083Z,50.13
2023-04-13T10:50:26.340Z,49.92
2023-04-13T10:53:08.381Z,47.90
2023-04-13T10:55:38.715Z,49.03
2023-04-13T10:58:18.897Z,49.47
2023-04-13T11:00:50.299Z,48.10
2023-04-13T11:03:23.368Z,49.22
2023-04-13T11:06:01.652Z,50.78
2023-04-13T11:08:32.060Z,48.90
2023-04-13T11:11:02.029Z,47.03
2023-04-13T11:13:33.490Z,48.97
2023-04-13T11:16:05.007Z,48.47
2023-04-13T11:18:35.541Z,46.92
2023-04-13T11:21:08.585Z,47.30
2023-04-13T11:23:39.796Z,46.55
2023-04-13T11:26:09.807Z,45.90
2023-04-13T11:28:45.098Z,46.65
2023-04-13T11:31:15.266Z,46.72
2023-04-13T11:33:45.956Z,45.42
2023-04-13T11:36:16.110Z,46.72
2023-04-13T11:38:46.585Z,46.10
2023-04-13T11:41:17.601Z,48.72
2023-04-13T11:43:50.099Z,46.17
2023-04-13T11:46:27.102Z,48.75
2023-04-13T11:48:58.155Z,45.22
2023-04-13T11:51:28.599Z,45.55
2023-04-13T11:54:00.010Z,49.92
2023-04-13T11:56:30.374Z,45.25
2023-04-13T11:59:00.339Z,45.78
2023-04-13T12:01:34.415Z,44.38
2023-04-13T12:04:15.572Z,48.90
2023-04-13T12:06:51.389Z,46.30
2023-04-13T12:09:44.000Z,46.92
2023-04-13T12:15:15.460Z,47.00
2023-04-13T12:17:57.777Z,46.90
2023-04-13T12:20:50.518Z,48.30
2023-04-13T12:23:28.301Z,46.50
2023-04-13T12:26:04.905Z,46.47
2023-04-13T12:28:49.712Z,49.42
2023-04-13T12:31:22.779Z,50.70
2023-04-13T12:33:53.174Z,48.53
2023-04-13T12:36:23.233Z,47.55
2023-04-13T12:38:53.140Z,46.92
2023-04-13T12:41:25.793Z,46.80
2023-04-13T12:43:56.729Z,43.90
2023-04-13T12:46:28.076Z,49.03
2023-04-13T12:48:58.337Z,46.95
2023-04-13T12:51:28.433Z,44.90
2023-04-13T12:53:58.371Z,46.17
2023-04-13T12:56:28.576Z,46.17
2023-04-13T12:58:59.024Z,47.10
2023-04-13T13:01:29.342Z,46.20
2023-04-13T13:03:59.642Z,45.22
2023-04-13T13:06:29.355Z,46.10
2023-04-13T13:08:59.606Z,46.10
2023-04-13T13:11:29.916Z,46.05
2023-04-13T13:13:59.973Z,44.30
2023-04-13T13:16:29.947Z,46.60
2023-04-13T13:18:59.807Z,48.65
2023-04-13T13:21:29.613Z,46.05
2023-04-13T13:23:59.723Z,45.10
2023-04-13T13:26:36.669Z,47.10
2023-04-13T13:29:16.093Z,45.58
2023-04-13T13:31:46.064Z,47.47
2023-04-13T13:34:17.110Z,46.53
2023-04-13T13:36:48.093Z,62.08
2023-04-13T13:39:19.035Z,49.15
2023-04-13T13:41:49.356Z,45.10
2023-04-13T13:44:19.954Z,46.38
2023-04-13T13:46:50.038Z,47.50
2023-04-13T13:49:22.836Z,46.53
2023-04-13T13:52:12.577Z,49.58
2023-04-13T13:54:53.853Z,49.85
2023-04-13T13:57:23.873Z,47.90
2023-04-13T13:59:53.789Z,47.60
2023-04-13T14:02:23.927Z,46.65
2023-04-13T14:04:53.682Z,45.63
2023-04-13T14:07:23.802Z,46.80
2023-04-13T14:09:53.522Z,47.13
2023-04-13T14:12:23.454Z,46.50
2023-04-13T14:14:53.233Z,47.60
2023-04-13T14:17:23.390Z,48.60
2023-04-13T14:19:53.129Z,47.97
2023-04-13T14:22:25.429Z,46.92
2023-04-13T14:24:56.282Z,47.22
2023-04-13T14:27:27.218Z,46.95
2023-04-13T14:29:57.040Z,48.13
2023-04-13T14:32:27.110Z,48.10
2023-04-13T14:34:59.256Z,46.40
2023-04-13T14:37:29.741Z,47.78
2023-04-13T14:39:59.629Z,45.88
2023-04-13T14:42:31.326Z,47.85
2023-04-13T14:45:02.368Z,47.20
2023-04-13T14:47:32.614Z,47.22
2023-04-13T14:50:02.978Z,47.90
2023-04-13T14:52:33.129Z,46.75
2023-04-13T14:55:03.229Z,48.97
2023-04-13T14:57:33.844Z,47.97
2023-04-13T15:00:04.708Z,49.40
2023-04-13T15:02:34.873Z,45.55
2023-04-13T15:05:05.838Z,48.80
2023-04-13T15:07:35.999Z,45.58
2023-04-13T15:10:08.879Z,46.35
2023-04-13T15:12:39.288Z,73.75
2023-04-13T15:15:09.772Z,48.42
2023-04-13T15:17:39.764Z,45.75
2023-04-13T15:20:12.123Z,49.08
2023-04-13T15:22:42.253Z,47.63
2023-04-13T15:25:12.598Z,46.15
2023-04-13T15:27:42.763Z,46.90
2023-04-13T15:30:12.986Z,48.50
2023-04-13T15:32:43.174Z,47.50
2023-04-13T15:35:14.776Z,47.38
2023-04-13T15:37:44.957Z,46.78
2023-04-13T15:40:14.846Z,46.38
2023-04-13T15:42:44.703Z,46.42
2023-04-13T15:45:15.392Z,47.15
2023-04-13T15:47:45.524Z,49.55
2023-04-13T15:50:15.348Z,47.25
2023-04-13T15:52:45.306Z,46.13
2023-04-13T15:55:15.425Z,50.00
2023-04-13T15:57:45.439Z,52.33
2023-04-13T16:00:16.324Z,49.60
2023-04-13T16:02:46.683Z,47.63
2023-04-13T16:05:16.957Z,49.33
2023-04-13T16:07:46.989Z,47.70
2023-04-13T16:10:20.675Z,48.47
2023-04-13T16:12:51.370Z,48.25
2023-04-13T16:15:21.810Z,49.63
2023-04-13T16:17:51.950Z,49.10
2023-04-13T16:20:22.587Z,48.70
2023-04-13T16:22:54.950Z,50.22
2023-04-13T16:25:25.322Z,49.03
2023-04-13T16:27:56.199Z,52.00
2023-04-13T16:30:26.584Z,50.10
2023-04-13T16:32:56.430Z,49.17
2023-04-13T16:35:26.550Z,48.95
2023-04-13T16:37:56.394Z,48.35
2023-04-13T16:40:26.641Z,48.95
2023-04-13T16:42:56.405Z,53.00
2023-04-13T16:45:27.417Z,49.22
2023-04-13T16:47:58.036Z,49.47
2023-04-13T16:50:31.887Z,47.25
2023-04-13T16:53:02.377Z,50.30
2023-04-13T16:55:32.828Z,50.92
2023-04-13T16:58:02.816Z,51.10
2023-04-13T17:00:32.871Z,49.95
2023-04-13T17:03:03.104Z,49.13
2023-04-13T17:05:32.973Z,49.08
2023-04-13T17:08:02.946Z,52.58
2023-04-13T17:10:32.959Z,51.28
2023-04-13T17:13:03.167Z,50.42
2023-04-13T17:15:33.127Z,50.75
2023-04-13T17:18:03.197Z,52.58
2023-04-13T17:20:32.976Z,52.67
2023-04-13T17:23:02.957Z,52.33
2023-04-13T17:25:33.177Z,53.33
2023-04-13T17:28:03.157Z,52.63
2023-04-13T17:30:33.341Z,50.75
2023-04-13T17:33:03.324Z,51.97
2023-04-13T17:35:33.190Z,51.05
2023-04-13T17:38:03.217Z,50.38
2023-04-13T17:40:33.232Z,49.88
2023-04-13T17:43:03.281Z,51.75
2023-04-13T17:45:33.769Z,52.40
2023-04-13T17:48:04.217Z,50.85
2023-04-13T17:50:34.421Z,51.25
2023-04-13T17:53:05.745Z,49.10
2023-04-13T17:55:39.062Z,51.85
2023-04-13T17:58:09.118Z,51.33
2023-04-13T18:00:39.159Z,51.63
2023-04-13T18:03:10.691Z,50.63
2023-04-13T18:05:48.001Z,51.90
2023-04-13T18:08:18.128Z,52.15
2023-04-13T18:10:47.904Z,53.20
2023-04-13T18:13:18.316Z,50.95
2023-04-13T18:15:51.401Z,51.55
2023-04-13T18:18:25.691Z,52.33
2023-04-13T18:20:55.864Z,51.28
2023-04-13T18:23:25.623Z,51.28
2023-04-13T18:25:55.754Z,50.30
2023-04-13T18:28:25.541Z,52.55
2023-04-13T18:31:00.172Z,52.08
2023-04-13T18:33:32.083Z,52.40
2023-04-13T18:36:02.102Z,52.03
2023-04-13T18:38:31.858Z,51.03
2023-04-13T18:41:02.125Z,52.20
2023-04-13T18:43:31.987Z,56.10
2023-04-13T18:46:03.017Z,54.15
2023-04-13T18:48:33.387Z,50.72
2023-04-13T18:51:04.610Z,51.40
2023-04-13T18:53:34.816Z,50.63
2023-04-13T18:56:04.525Z,52.95
2023-04-13T18:58:37.078Z,52.03
2023-04-13T19:01:17.479Z,52.17
2023-04-13T19:03:48.120Z,51.15
2023-04-13T19:06:17.951Z,52.58
2023-04-13T19:08:47.920Z,51.38
2023-04-13T19:11:19.104Z,53.97
2023-04-13T19:13:49.539Z,49.55
2023-04-13T19:16:19.238Z,50.88
2023-04-13T19:18:49.182Z,52.80
2023-04-13T19:21:20.096Z,53.55
2023-04-13T19:23:50.129Z,53.30
2023-04-13T19:26:19.938Z,50.88
2023-04-13T19:28:49.911Z,51.83
2023-04-13T19:31:19.665Z,51.30
2023-04-13T19:33:50.370Z,52.17
2023-04-13T19:36:20.108Z,53.13
2023-04-13T19:38:50.092Z,51.88
2023-04-13T19:41:19.788Z,52.97
2023-04-13T19:43:49.918Z,54.30
2023-04-13T19:46:20.315Z,54.63
2023-04-13T19:48:51.549Z,52.55
2023-04-13T19:51:21.734Z,51.60
2023-04-13T19:53:51.830Z,52.55
2023-04-13T19:56:26.991Z,52.78
2023-04-13T19:58:57.152Z,55.00
2023-04-13T20:01:27.175Z,52.22
2023-04-13T20:03:57.222Z,52.63
2023-04-13T20:06:28.753Z,51.65
2023-04-13T20:09:10.177Z,53.80
2023-04-13T20:11:40.700Z,54.45
2023-04-13T20:14:12.821Z,55.28
2023-04-13T20:16:42.885Z,56.72
2023-04-13T20:19:13.379Z,52.95
2023-04-13T20:21:43.601Z,54.63
2023-04-13T20:24:13.311Z,55.83
2023-04-13T20:26:45.057Z,54.58
2023-04-13T20:29:20.521Z,53.83
2023-04-13T20:31:50.709Z,57.67
2023-04-13T20:34:21.699Z,55.42
2023-04-13T20:36:51.892Z,54.47
2023-04-13T20:39:26.688Z,53.47
2023-04-13T20:41:57.353Z,54.60
2023-04-13T20:44:28.831Z,53.85
2023-04-13T20:47:00.078Z,60.60
2023-04-13T20:49:33.145Z,54.42
2023-04-13T20:52:03.546Z,54.88
2023-04-13T20:54:33.279Z,58.50
2023-04-13T20:57:03.221Z,56.25
2023-04-13T20:59:32.964Z,56.53
2023-04-13T21:02:03.357Z,55.75
2023-04-13T21:04:33.396Z,55.63
2023-04-13T21:07:03.801Z,60.97
2023-04-13T21:09:33.708Z,57.20
2023-04-13T21:12:03.793Z,54.97
2023-04-13T21:14:33.863Z,58.33
2023-04-13T21:17:03.545Z,56.97
2023-04-13T21:19:35.624Z,58.17
2023-04-13T21:22:07.070Z,59.67
2023-04-13T21:24:37.426Z,57.55
2023-04-13T21:27:07.528Z,57.08
2023-04-13T21:29:37.497Z,58.17
2023-04-13T21:32:08.080Z,56.67
2023-04-13T21:34:37.965Z,60.40
2023-04-13T21:37:08.696Z,57.03
2023-04-13T21:39:38.706Z,59.60
2023-04-13T21:42:08.518Z,59.92
2023-04-13T21:44:38.443Z,57.10
2023-04-13T21:47:08.977Z,56.88
2023-04-13T21:49:39.324Z,56.63
2023-04-13T21:52:09.076Z,57.70
2023-04-13T21:54:39.021Z,57.35
2023-04-13T21:57:08.786Z,59.42
2023-04-13T21:59:38.966Z,57.65
2023-04-13T22:02:09.070Z,61.40
2023-04-13T22:04:39.291Z,57.50
2023-04-13T22:07:09.124Z,56.63
2023-04-13T22:09:39.363Z,59.80
2023-04-13T22:12:11.681Z,60.03
2023-04-13T22:14:42.119Z,55.72
2023-04-13T22:17:13.153Z,57.10
2023-04-13T22:19:44.331Z,60.55
2023-04-13T22:22:14.074Z,63.60
2023-04-13T22:24:44.028Z,56.72
2023-04-13T22:27:13.832Z,57.78
2023-04-13T22:29:43.953Z,59.67
2023-04-13T22:32:13.772Z,60.25
2023-04-13T22:34:43.803Z,61.53
2023-04-13T22:37:17.423Z,56.17
2023-04-13T22:39:47.837Z,57.80
2023-04-13T22:42:19.372Z,58.20
2023-04-13T22:44:49.534Z,58.92
2023-04-13T22:47:20.006Z,57.90
2023-04-13T22:49:50.146Z,61.90
2023-04-13T22:52:21.597Z,59.60
2023-04-13T22:54:52.008Z,57.00
2023-04-13T22:57:22.286Z,60.92
2023-04-13T22:59:53.150Z,59.45
2023-04-13T23:02:23.194Z,58.08
2023-04-13T23:04:53.444Z,59.58
2023-04-13T23:07:23.870Z,58.30
2023-04-13T23:09:54.726Z,61.63
2023-04-13T23:12:24.721Z,66.78
2023-04-13T23:14:54.695Z,60.28
2023-04-13T23:17:24.913Z,60.20
2023-04-13T23:19:58.102Z,64.80
2023-04-13T23:22:29.511Z,67.00
2023-04-13T23:24:59.584Z,63.75
2023-04-13T23:27:29.472Z,73.53
2023-04-13T23:29:59.650Z,60.45
2023-04-13T23:32:29.502Z,61.92
2023-04-13T23:34:59.610Z,75.38
2023-04-13T23:37:29.448Z,71.13
2023-04-13T23:39:59.786Z,63.95
2023-04-13T23:42:29.660Z,73.32
2023-04-13T23:44:59.623Z,69.80
2023-04-13T23:47:30.354Z,69.20
2023-04-13T23:50:00.524Z,76.85
2023-04-13T23:52:30.344Z,82.93
2023-04-13T23:55:00.272Z,79.10
2023-04-13T23:57:34.657Z,81.75
